sensor_id;sensor_type;location;lat;lon;timestamp;pressure;altitude;pressure_sealevel;temperature;humidity
18819;BME280;9537;45.594;9.294;2023-01-29T00:00:51;100396.63;;;1.12;71.61
18819;BME280;9537;45.594;9.294;2023-01-29T00:01:52;100400.88;;;1.13;71.25
18819;BME280;9537;45.594;9.294;2023-01-29T00:02:54;100404.97;;;1.17;71.40
18819;BME280;9537;45.594;9.294;2023-01-29T00:03:55;100410.28;;;1.16;71.11
18819;BME280;9537;45.594;9.294;2023-01-29T00:04:57;100409.34;;;1.17;70.60
18819;BME280;9537;45.594;9.294;2023-01-29T00:05:59;100409.97;;;1.20;71.38
18819;BME280;9537;45.594;9.294;2023-01-29T00:07:06;100407.38;;;1.20;70.60
18819;BME280;9537;45.594;9.294;2023-01-29T00:08:08;100409.97;;;1.20;70.35
18819;BME280;9537;45.594;9.294;2023-01-29T00:09:09;100405.72;;;1.19;71.36
18819;BME280;9537;45.594;9.294;2023-01-29T00:10:11;100406.09;;;1.13;70.63
18819;BME280;9537;45.594;9.294;2023-01-29T00:11:12;100406.94;;;0.99;71.37
18819;BME280;9537;45.594;9.294;2023-01-29T00:12:17;100399.97;;;1.00;71.60
18819;BME280;9537;45.594;9.294;2023-01-29T00:13:18;100408.78;;;0.97;71.92
18819;BME280;9537;45.594;9.294;2023-01-29T00:14:20;100401.84;;;0.98;72.16
18819;BME280;9537;45.594;9.294;2023-01-29T00:15:22;100409.66;;;0.98;71.33
18819;BME280;9537;45.594;9.294;2023-01-29T00:16:24;100403.75;;;0.94;71.81
18819;BME280;9537;45.594;9.294;2023-01-29T00:17:25;100399.44;;;0.95;71.98
18819;BME280;9537;45.594;9.294;2023-01-29T00:18:28;100406.09;;;0.99;71.62
18819;BME280;9537;45.594;9.294;2023-01-29T00:19:30;100407.69;;;1.01;71.36
18819;BME280;9537;45.594;9.294;2023-01-29T00:20:32;100409.34;;;1.02;71.55
18819;BME280;9537;45.594;9.294;2023-01-29T00:21:33;100412.88;;;1.01;71.05
18819;BME280;9537;45.594;9.294;2023-01-29T00:22:35;100411.38;;;0.97;71.30
18819;BME280;9537;45.594;9.294;2023-01-29T00:23:36;100416.59;;;0.97;71.13
18819;BME280;9537;45.594;9.294;2023-01-29T00:24:38;100417.63;;;0.95;71.08
18819;BME280;9537;45.594;9.294;2023-01-29T00:25:39;100414.94;;;0.96;71.93
18819;BME280;9537;45.594;9.294;2023-01-29T00:26:41;100414.16;;;0.94;71.24
18819;BME280;9537;45.594;9.294;2023-01-29T00:27:43;100414.75;;;0.99;71.74
18819;BME280;9537;45.594;9.294;2023-01-29T00:28:44;100413.72;;;1.02;71.85
18819;BME280;9537;45.594;9.294;2023-01-29T00:29:46;100412.59;;;1.06;71.15
18819;BME280;9537;45.594;9.294;2023-01-29T00:31:11;100414.47;;;1.04;71.13
18819;BME280;9537;45.594;9.294;2023-01-29T00:32:14;100411.31;;;0.99;71.77
18819;BME280;9537;45.594;9.294;2023-01-29T00:33:15;100415.03;;;0.95;71.74
18819;BME280;9537;45.594;9.294;2023-01-29T00:34:17;100410.66;;;0.95;71.27
18819;BME280;9537;45.594;9.294;2023-01-29T00:35:18;100411.94;;;1.02;71.58
18819;BME280;9537;45.594;9.294;2023-01-29T00:36:20;100417.34;;;0.99;71.19
18819;BME280;9537;45.594;9.294;2023-01-29T00:37:21;100417.72;;;0.93;71.23
18819;BME280;9537;45.594;9.294;2023-01-29T00:38:23;100410.09;;;0.90;71.84
18819;BME280;9537;45.594;9.294;2023-01-29T00:39:24;100421.44;;;0.89;71.88
18819;BME280;9537;45.594;9.294;2023-01-29T00:40:38;100415.56;;;0.85;72.45
18819;BME280;9537;45.594;9.294;2023-01-29T00:41:57;100414.72;;;0.85;71.68
18819;BME280;9537;45.594;9.294;2023-01-29T00:43:17;100416.44;;;0.86;72.21
18819;BME280;9537;45.594;9.294;2023-01-29T00:44:37;100412.88;;;0.87;71.46
18819;BME280;9537;45.594;9.294;2023-01-29T00:45:56;100411.31;;;0.84;71.32
18819;BME280;9537;45.594;9.294;2023-01-29T00:46:59;100408.63;;;0.86;71.50
18819;BME280;9537;45.594;9.294;2023-01-29T00:48:00;100410.94;;;0.90;71.95
18819;BME280;9537;45.594;9.294;2023-01-29T00:49:02;100413.25;;;0.95;72.00
18819;BME280;9537;45.594;9.294;2023-01-29T00:50:06;100409.66;;;0.98;71.11
18819;BME280;9537;45.594;9.294;2023-01-29T00:51:09;100408.88;;;0.96;71.38
18819;BME280;9537;45.594;9.294;2023-01-29T00:52:09;100413.53;;;0.90;71.57
18819;BME280;9537;45.594;9.294;2023-01-29T00:53:26;100418.72;;;0.90;70.89
18819;BME280;9537;45.594;9.294;2023-01-29T00:54:27;100409.44;;;0.86;71.76
18819;BME280;9537;45.594;9.294;2023-01-29T00:55:29;100410.47;;;0.84;71.83
18819;BME280;9537;45.594;9.294;2023-01-29T00:56:30;100422.81;;;0.80;71.14
18819;BME280;9537;45.594;9.294;2023-01-29T00:57:33;100417.78;;;0.77;72.16
18819;BME280;9537;45.594;9.294;2023-01-29T00:58:34;100415.94;;;0.79;71.89
18819;BME280;9537;45.594;9.294;2023-01-29T00:59:36;100419.47;;;0.78;71.78
18819;BME280;9537;45.594;9.294;2023-01-29T01:00:38;100418.81;;;0.75;71.74
18819;BME280;9537;45.594;9.294;2023-01-29T01:01:40;100417.97;;;0.74;71.81
18819;BME280;9537;45.594;9.294;2023-01-29T01:03:15;100422.34;;;0.74;71.90
18819;BME280;9537;45.594;9.294;2023-01-29T01:04:16;100415.38;;;0.74;71.89
18819;BME280;9537;45.594;9.294;2023-01-29T01:05:18;100414.34;;;0.77;71.34
18819;BME280;9537;45.594;9.294;2023-01-29T01:06:20;100423.34;;;0.71;71.55
18819;BME280;9537;45.594;9.294;2023-01-29T01:07:22;100419.09;;;0.70;71.17
18819;BME280;9537;45.594;9.294;2023-01-29T01:08:24;100425.66;;;0.61;71.49
18819;BME280;9537;45.594;9.294;2023-01-29T01:09:43;100420.66;;;0.58;72.30
18819;BME280;9537;45.594;9.294;2023-01-29T01:11:04;100426.41;;;0.49;72.34
18819;BME280;9537;45.594;9.294;2023-01-29T01:12:05;100427.41;;;0.47;72.73
18819;BME280;9537;45.594;9.294;2023-01-29T01:13:07;100424.22;;;0.41;72.82
18819;BME280;9537;45.594;9.294;2023-01-29T01:14:08;100424.84;;;0.31;73.41
18819;BME280;9537;45.594;9.294;2023-01-29T01:15:10;100427.25;;;0.34;72.90
18819;BME280;9537;45.594;9.294;2023-01-29T01:16:13;100426.53;;;0.32;73.45
18819;BME280;9537;45.594;9.294;2023-01-29T01:17:15;100430.81;;;0.33;72.74
18819;BME280;9537;45.594;9.294;2023-01-29T01:18:18;100427.38;;;0.32;72.50
18819;BME280;9537;45.594;9.294;2023-01-29T01:19:21;100433.41;;;0.33;72.92
18819;BME280;9537;45.594;9.294;2023-01-29T01:20:23;100424.84;;;0.31;72.54
18819;BME280;9537;45.594;9.294;2023-01-29T01:21:28;100432.56;;;0.32;73.20
18819;BME280;9537;45.594;9.294;2023-01-29T01:22:29;100426.72;;;0.29;73.50
18819;BME280;9537;45.594;9.294;2023-01-29T01:23:31;100425.84;;;0.28;73.41
18819;BME280;9537;45.594;9.294;2023-01-29T01:24:32;100430.03;;;0.31;72.91
18819;BME280;9537;45.594;9.294;2023-01-29T01:25:34;100428.97;;;0.35;73.36
18819;BME280;9537;45.594;9.294;2023-01-29T01:26:35;100427.19;;;0.35;73.20
18819;BME280;9537;45.594;9.294;2023-01-29T01:27:37;100428.03;;;0.36;72.70
18819;BME280;9537;45.594;9.294;2023-01-29T01:28:41;100434.81;;;0.38;72.37
18819;BME280;9537;45.594;9.294;2023-01-29T01:29:43;100433.28;;;0.34;73.08
18819;BME280;9537;45.594;9.294;2023-01-29T01:30:44;100434.59;;;0.27;73.11
18819;BME280;9537;45.594;9.294;2023-01-29T01:31:46;100433.66;;;0.28;72.71
18819;BME280;9537;45.594;9.294;2023-01-29T01:32:48;100435.06;;;0.34;72.68
18819;BME280;9537;45.594;9.294;2023-01-29T01:33:51;100439.34;;;0.35;72.90
18819;BME280;9537;45.594;9.294;2023-01-29T01:34:53;100434.88;;;0.37;72.86
18819;BME280;9537;45.594;9.294;2023-01-29T01:36:00;100438.72;;;0.45;72.16
18819;BME280;9537;45.594;9.294;2023-01-29T01:37:01;100440.75;;;0.40;72.72
18819;BME280;9537;45.594;9.294;2023-01-29T01:38:03;100435.66;;;0.39;72.37
18819;BME280;9537;45.594;9.294;2023-01-29T01:39:04;100434.38;;;0.46;71.97
18819;BME280;9537;45.594;9.294;2023-01-29T01:40:09;100431.97;;;0.43;72.43
18819;BME280;9537;45.594;9.294;2023-01-29T01:41:13;100439.06;;;0.39;72.63
18819;BME280;9537;45.594;9.294;2023-01-29T01:42:15;100440.25;;;0.34;72.60
18819;BME280;9537;45.594;9.294;2023-01-29T01:43:16;100439.53;;;0.32;72.28
18819;BME280;9537;45.594;9.294;2023-01-29T01:44:56;100436.00;;;0.33;73.11
18819;BME280;9537;45.594;9.294;2023-01-29T01:45:58;100433.88;;;0.39;72.80
18819;BME280;9537;45.594;9.294;2023-01-29T01:47:00;100435.28;;;0.45;72.29
18819;BME280;9537;45.594;9.294;2023-01-29T01:48:04;100436.41;;;0.41;71.84
18819;BME280;9537;45.594;9.294;2023-01-29T01:49:12;100429.34;;;0.43;71.78
18819;BME280;9537;45.594;9.294;2023-01-29T01:50:18;100434.56;;;0.43;72.08
18819;BME280;9537;45.594;9.294;2023-01-29T01:51:23;100441.13;;;0.49;71.37
18819;BME280;9537;45.594;9.294;2023-01-29T01:52:26;100435.09;;;0.48;71.91
18819;BME280;9537;45.594;9.294;2023-01-29T01:53:31;100435.22;;;0.47;71.35
18819;BME280;9537;45.594;9.294;2023-01-29T01:54:36;100433.19;;;0.52;71.92
18819;BME280;9537;45.594;9.294;2023-01-29T01:55:41;100430.84;;;0.47;71.91
18819;BME280;9537;45.594;9.294;2023-01-29T01:56:47;100431.09;;;0.42;71.51
18819;BME280;9537;45.594;9.294;2023-01-29T01:57:52;100436.41;;;0.41;71.45
18819;BME280;9537;45.594;9.294;2023-01-29T01:58:57;100434.81;;;0.38;72.39
18819;BME280;9537;45.594;9.294;2023-01-29T02:00:02;100433.69;;;0.42;71.22
18819;BME280;9537;45.594;9.294;2023-01-29T02:01:11;100425.00;;;0.43;71.85
18819;BME280;9537;45.594;9.294;2023-01-29T02:02:15;100430.44;;;0.39;71.95
18819;BME280;9537;45.594;9.294;2023-01-29T02:03:38;100435.00;;;0.35;71.13
18819;BME280;9537;45.594;9.294;2023-01-29T02:05:01;100428.09;;;0.34;71.19
18819;BME280;9537;45.594;9.294;2023-01-29T02:06:21;100431.16;;;0.27;72.10
18819;BME280;9537;45.594;9.294;2023-01-29T02:07:41;100431.34;;;0.24;71.57
18819;BME280;9537;45.594;9.294;2023-01-29T02:09:06;100427.81;;;0.25;71.80
18819;BME280;9537;45.594;9.294;2023-01-29T02:10:29;100434.19;;;0.19;72.02
18819;BME280;9537;45.594;9.294;2023-01-29T02:11:33;100432.00;;;0.11;71.73
18819;BME280;9537;45.594;9.294;2023-01-29T02:12:35;100431.53;;;0.05;71.99
18819;BME280;9537;45.594;9.294;2023-01-29T02:13:37;100431.13;;;-0.04;72.71
18819;BME280;9537;45.594;9.294;2023-01-29T02:14:39;100432.81;;;-0.03;72.38
18819;BME280;9537;45.594;9.294;2023-01-29T02:15:42;100432.22;;;-0.08;72.81
18819;BME280;9537;45.594;9.294;2023-01-29T02:16:46;100432.06;;;-0.05;72.65
18819;BME280;9537;45.594;9.294;2023-01-29T02:17:48;100428.34;;;-0.01;72.73
18819;BME280;9537;45.594;9.294;2023-01-29T02:18:50;100428.63;;;-0.05;73.37
18819;BME280;9537;45.594;9.294;2023-01-29T02:19:57;100426.94;;;-0.06;73.24
18819;BME280;9537;45.594;9.294;2023-01-29T02:21:12;100421.00;;;-0.08;73.56
18819;BME280;9537;45.594;9.294;2023-01-29T02:22:57;100427.28;;;-0.12;73.50
18819;BME280;9537;45.594;9.294;2023-01-29T02:26:14;100429.22;;;0.00;73.14
18819;BME280;9537;45.594;9.294;2023-01-29T02:27:23;100432.81;;;-0.03;73.27
18819;BME280;9537;45.594;9.294;2023-01-29T02:28:38;100440.84;;;-0.07;73.66
18819;BME280;9537;45.594;9.294;2023-01-29T02:29:47;100434.81;;;-0.08;73.59
18819;BME280;9537;45.594;9.294;2023-01-29T02:31:00;100440.69;;;-0.04;73.08
18819;BME280;9537;45.594;9.294;2023-01-29T02:32:14;100437.91;;;-0.01;73.42
18819;BME280;9537;45.594;9.294;2023-01-29T02:33:27;100443.50;;;0.07;73.09
18819;BME280;9537;45.594;9.294;2023-01-29T02:34:37;100441.69;;;0.09;72.62
18819;BME280;9537;45.594;9.294;2023-01-29T02:36:10;100449.94;;;0.16;73.00
18819;BME280;9537;45.594;9.294;2023-01-29T02:37:14;100447.47;;;0.14;72.96
18819;BME280;9537;45.594;9.294;2023-01-29T02:38:19;100453.47;;;0.15;72.62
18819;BME280;9537;45.594;9.294;2023-01-29T02:39:31;100447.34;;;0.16;72.42
18819;BME280;9537;45.594;9.294;2023-01-29T02:40:39;100456.25;;;0.12;72.88
18819;BME280;9537;45.594;9.294;2023-01-29T02:41:45;100444.28;;;0.09;72.74
18819;BME280;9537;45.594;9.294;2023-01-29T02:42:57;100450.31;;;0.10;72.86
18819;BME280;9537;45.594;9.294;2023-01-29T02:44:09;100449.88;;;0.02;72.31
18819;BME280;9537;45.594;9.294;2023-01-29T02:45:15;100453.78;;;-0.06;72.44
18819;BME280;9537;45.594;9.294;2023-01-29T02:46:24;100459.97;;;-0.08;73.18
18819;BME280;9537;45.594;9.294;2023-01-29T02:47:35;100455.94;;;-0.14;73.95
18819;BME280;9537;45.594;9.294;2023-01-29T02:48:42;100455.00;;;-0.13;73.95
18819;BME280;9537;45.594;9.294;2023-01-29T02:49:48;100450.66;;;-0.12;73.64
18819;BME280;9537;45.594;9.294;2023-01-29T02:50:55;100450.81;;;-0.15;73.78
18819;BME280;9537;45.594;9.294;2023-01-29T02:52:02;100453.19;;;-0.11;73.75
18819;BME280;9537;45.594;9.294;2023-01-29T02:53:11;100453.25;;;-0.12;73.56
18819;BME280;9537;45.594;9.294;2023-01-29T02:54:18;100453.09;;;-0.09;73.30
18819;BME280;9537;45.594;9.294;2023-01-29T02:55:24;100460.13;;;-0.11;73.52
18819;BME280;9537;45.594;9.294;2023-01-29T02:56:33;100453.84;;;-0.07;73.42
18819;BME280;9537;45.594;9.294;2023-01-29T02:57:40;100458.78;;;-0.03;73.04
18819;BME280;9537;45.594;9.294;2023-01-29T02:58:45;100456.09;;;-0.01;72.95
18819;BME280;9537;45.594;9.294;2023-01-29T02:59:54;100470.66;;;0.02;72.35
18819;BME280;9537;45.594;9.294;2023-01-29T03:00:59;100456.03;;;0.01;72.61
18819;BME280;9537;45.594;9.294;2023-01-29T03:02:06;100466.13;;;0.05;72.53
18819;BME280;9537;45.594;9.294;2023-01-29T03:03:13;100463.63;;;0.04;72.84
18819;BME280;9537;45.594;9.294;2023-01-29T03:04:22;100463.47;;;0.07;72.96
18819;BME280;9537;45.594;9.294;2023-01-29T03:05:27;100465.06;;;0.09;72.82
18819;BME280;9537;45.594;9.294;2023-01-29T03:06:34;100459.16;;;0.06;72.47
18819;BME280;9537;45.594;9.294;2023-01-29T03:07:40;100464.53;;;0.03;72.21
18819;BME280;9537;45.594;9.294;2023-01-29T03:08:49;100456.09;;;-0.01;72.23
18819;BME280;9537;45.594;9.294;2023-01-29T03:09:54;100455.78;;;-0.11;73.11
18819;BME280;9537;45.594;9.294;2023-01-29T03:11:01;100460.13;;;-0.11;72.92
18819;BME280;9537;45.594;9.294;2023-01-29T03:12:09;100460.38;;;-0.16;72.56
18819;BME280;9537;45.594;9.294;2023-01-29T03:13:33;100458.03;;;-0.20;73.28
18819;BME280;9537;45.594;9.294;2023-01-29T03:14:39;100462.03;;;-0.15;72.69
18819;BME280;9537;45.594;9.294;2023-01-29T03:16:03;100452.94;;;-0.22;73.32
18819;BME280;9537;45.594;9.294;2023-01-29T03:17:07;100458.19;;;-0.24;73.00
18819;BME280;9537;45.594;9.294;2023-01-29T03:18:12;100456.78;;;-0.29;72.75
18819;BME280;9537;45.594;9.294;2023-01-29T03:19:19;100456.94;;;-0.32;73.22
18819;BME280;9537;45.594;9.294;2023-01-29T03:20:24;100452.69;;;-0.33;73.22
18819;BME280;9537;45.594;9.294;2023-01-29T03:21:32;100448.44;;;-0.34;73.04
18819;BME280;9537;45.594;9.294;2023-01-29T03:23:02;100460.19;;;-0.29;73.60
18819;BME280;9537;45.594;9.294;2023-01-29T03:24:08;100458.47;;;-0.28;73.60
18819;BME280;9537;45.594;9.294;2023-01-29T03:25:29;100456.59;;;-0.26;73.68
18819;BME280;9537;45.594;9.294;2023-01-29T03:26:51;100460.13;;;-0.27;73.26
18819;BME280;9537;45.594;9.294;2023-01-29T03:28:13;100461.91;;;-0.28;73.71
18819;BME280;9537;45.594;9.294;2023-01-29T03:29:35;100462.13;;;-0.32;73.33
18819;BME280;9537;45.594;9.294;2023-01-29T03:31:02;100462.06;;;-0.31;73.64
18819;BME280;9537;45.594;9.294;2023-01-29T03:32:23;100461.06;;;-0.28;73.66
18819;BME280;9537;45.594;9.294;2023-01-29T03:33:27;100462.56;;;-0.24;73.55
18819;BME280;9537;45.594;9.294;2023-01-29T03:34:35;100462.38;;;-0.21;72.96
18819;BME280;9537;45.594;9.294;2023-01-29T03:35:43;100464.91;;;-0.19;73.30
18819;BME280;9537;45.594;9.294;2023-01-29T03:36:51;100457.84;;;-0.17;73.17
18819;BME280;9537;45.594;9.294;2023-01-29T03:37:55;100462.81;;;-0.13;72.75
18819;BME280;9537;45.594;9.294;2023-01-29T03:38:56;100459.28;;;-0.12;73.02
18819;BME280;9537;45.594;9.294;2023-01-29T03:39:59;100462.63;;;-0.10;72.85
18819;BME280;9537;45.594;9.294;2023-01-29T03:41:04;100469.66;;;-0.12;72.50
18819;BME280;9537;45.594;9.294;2023-01-29T03:42:16;100465.56;;;-0.16;72.69
18819;BME280;9537;45.594;9.294;2023-01-29T03:43:25;100465.56;;;-0.16;73.01
18819;BME280;9537;45.594;9.294;2023-01-29T03:44:37;100459.09;;;-0.09;72.55
18819;BME280;9537;45.594;9.294;2023-01-29T03:45:49;100461.31;;;-0.17;72.98
18819;BME280;9537;45.594;9.294;2023-01-29T03:47:02;100462.66;;;-0.26;72.64
18819;BME280;9537;45.594;9.294;2023-01-29T03:48:10;100466.97;;;-0.26;73.36
18819;BME280;9537;45.594;9.294;2023-01-29T03:49:20;100465.75;;;-0.19;73.34
18819;BME280;9537;45.594;9.294;2023-01-29T03:50:31;100468.34;;;-0.19;72.89
18819;BME280;9537;45.594;9.294;2023-01-29T03:51:40;100468.59;;;-0.24;72.96
18819;BME280;9537;45.594;9.294;2023-01-29T03:52:48;100458.38;;;-0.27;72.91
18819;BME280;9537;45.594;9.294;2023-01-29T03:53:56;100465.16;;;-0.24;72.74
18819;BME280;9537;45.594;9.294;2023-01-29T03:55:10;100467.75;;;-0.24;73.19
18819;BME280;9537;45.594;9.294;2023-01-29T03:56:24;100456.44;;;-0.23;72.82
18819;BME280;9537;45.594;9.294;2023-01-29T03:57:34;100466.41;;;-0.15;72.57
18819;BME280;9537;45.594;9.294;2023-01-29T03:58:41;100461.88;;;-0.12;72.32
18819;BME280;9537;45.594;9.294;2023-01-29T03:59:48;100465.22;;;-0.10;72.18
18819;BME280;9537;45.594;9.294;2023-01-29T04:00:57;100465.47;;;-0.14;72.58
18819;BME280;9537;45.594;9.294;2023-01-29T04:02:04;100463.16;;;-0.19;73.14
18819;BME280;9537;45.594;9.294;2023-01-29T04:03:16;100467.50;;;-0.19;72.69
18819;BME280;9537;45.594;9.294;2023-01-29T04:04:23;100463.16;;;-0.19;72.44
18819;BME280;9537;45.594;9.294;2023-01-29T04:05:30;100463.16;;;-0.19;72.43
18819;BME280;9537;45.594;9.294;2023-01-29T04:06:36;100464.22;;;-0.23;72.39
18819;BME280;9537;45.594;9.294;2023-01-29T04:07:40;100463.56;;;-0.27;72.67
18819;BME280;9537;45.594;9.294;2023-01-29T04:08:47;100465.56;;;-0.32;72.64
18819;BME280;9537;45.594;9.294;2023-01-29T04:09:54;100467.09;;;-0.28;73.47
18819;BME280;9537;45.594;9.294;2023-01-29T04:10:59;100467.31;;;-0.32;73.36
18819;BME280;9537;45.594;9.294;2023-01-29T04:12:04;100463.72;;;-0.30;73.44
18819;BME280;9537;45.594;9.294;2023-01-29T04:13:10;100467.09;;;-0.28;73.24
18819;BME280;9537;45.594;9.294;2023-01-29T04:14:14;100470.59;;;-0.29;73.38
18819;BME280;9537;45.594;9.294;2023-01-29T04:15:16;100469.69;;;-0.28;73.08
18819;BME280;9537;45.594;9.294;2023-01-29T04:16:22;100466.91;;;-0.25;73.10
18819;BME280;9537;45.594;9.294;2023-01-29T04:17:30;100462.72;;;-0.27;72.55
18819;BME280;9537;45.594;9.294;2023-01-29T04:18:34;100461.22;;;-0.31;73.44
18819;BME280;9537;45.594;9.294;2023-01-29T04:19:36;100467.31;;;-0.32;73.30
18819;BME280;9537;45.594;9.294;2023-01-29T04:20:39;100466.31;;;-0.30;73.43
18819;BME280;9537;45.594;9.294;2023-01-29T04:21:40;100464.66;;;-0.31;73.08
18819;BME280;9537;45.594;9.294;2023-01-29T04:22:45;100462.91;;;-0.30;73.51
18819;BME280;9537;45.594;9.294;2023-01-29T04:23:46;100461.56;;;-0.21;73.10
18819;BME280;9537;45.594;9.294;2023-01-29T04:24:48;100460.13;;;-0.27;72.40
18819;BME280;9537;45.594;9.294;2023-01-29T04:25:56;100456.88;;;-0.31;72.70
18819;BME280;9537;45.594;9.294;2023-01-29T04:27:18;100464.06;;;-0.36;73.11
18819;BME280;9537;45.594;9.294;2023-01-29T04:28:39;100463.41;;;-0.39;72.90
18819;BME280;9537;45.594;9.294;2023-01-29T04:29:53;100460.63;;;-0.36;72.93
18819;BME280;9537;45.594;9.294;2023-01-29T04:31:00;100467.50;;;-0.35;73.49
18819;BME280;9537;45.594;9.294;2023-01-29T04:32:10;100469.25;;;-0.36;73.32
18819;BME280;9537;45.594;9.294;2023-01-29T04:33:24;100469.25;;;-0.36;72.84
18819;BME280;9537;45.594;9.294;2023-01-29T04:34:33;100471.34;;;-0.42;73.40
18819;BME280;9537;45.594;9.294;2023-01-29T04:35:46;100472.25;;;-0.43;73.71
18819;BME280;9537;45.594;9.294;2023-01-29T04:37:00;100468.59;;;-0.39;73.29
18819;BME280;9537;45.594;9.294;2023-01-29T04:38:11;100466.91;;;-0.40;73.10
18819;BME280;9537;45.594;9.294;2023-01-29T04:39:21;100468.75;;;-0.42;73.31
18819;BME280;9537;45.594;9.294;2023-01-29T04:40:31;100463.22;;;-0.36;73.18
18819;BME280;9537;45.594;9.294;2023-01-29T04:41:41;100460.22;;;-0.44;73.68
18819;BME280;9537;45.594;9.294;2023-01-29T04:42:49;100472.44;;;-0.47;72.95
18819;BME280;9537;45.594;9.294;2023-01-29T04:43:59;100466.22;;;-0.44;73.39
18819;BME280;9537;45.594;9.294;2023-01-29T04:45:07;100475.84;;;-0.46;73.04
18819;BME280;9537;45.594;9.294;2023-01-29T04:46:15;100479.22;;;-0.44;73.45
18819;BME280;9537;45.594;9.294;2023-01-29T04:47:24;100481.03;;;-0.46;73.14
18819;BME280;9537;45.594;9.294;2023-01-29T04:48:41;100478.63;;;-0.49;73.23
18819;BME280;9537;45.594;9.294;2023-01-29T04:49:51;100476.94;;;-0.50;73.41
18819;BME280;9537;45.594;9.294;2023-01-29T04:51:01;100480.22;;;-0.47;73.48
18819;BME280;9537;45.594;9.294;2023-01-29T04:52:11;100480.97;;;-0.44;73.70
18819;BME280;9537;45.594;9.294;2023-01-29T04:53:20;100485.22;;;-0.43;73.34
18819;BME280;9537;45.594;9.294;2023-01-29T04:54:30;100480.97;;;-0.44;73.37
18819;BME280;9537;45.594;9.294;2023-01-29T04:55:40;100485.16;;;-0.42;73.70
18819;BME280;9537;45.594;9.294;2023-01-29T04:56:48;100486.06;;;-0.43;73.80
18819;BME280;9537;45.594;9.294;2023-01-29T04:57:57;100485.94;;;-0.40;73.92
18819;BME280;9537;45.594;9.294;2023-01-29T04:59:05;100482.81;;;-0.47;73.80
18819;BME280;9537;45.594;9.294;2023-01-29T05:00:12;100478.44;;;-0.46;73.46
18819;BME280;9537;45.594;9.294;2023-01-29T05:01:18;100483.06;;;-0.51;73.69
18819;BME280;9537;45.594;9.294;2023-01-29T05:02:23;100476.28;;;-0.54;74.05
18819;BME280;9537;45.594;9.294;2023-01-29T05:03:28;100473.59;;;-0.52;74.10
18819;BME280;9537;45.594;9.294;2023-01-29T05:04:34;100480.53;;;-0.53;73.54
18819;BME280;9537;45.594;9.294;2023-01-29T05:05:38;100474.34;;;-0.50;73.26
18819;BME280;9537;45.594;9.294;2023-01-29T05:06:42;100470.59;;;-0.44;73.67
18819;BME280;9537;45.594;9.294;2023-01-29T05:07:47;100469.22;;;-0.52;73.60
18819;BME280;9537;45.594;9.294;2023-01-29T05:08:50;100469.56;;;-0.58;73.62
18819;BME280;9537;45.594;9.294;2023-01-29T05:09:52;100463.03;;;-0.65;73.73
18819;BME280;9537;45.594;9.294;2023-01-29T05:10:56;100469.91;;;-0.64;73.69
18819;BME280;9537;45.594;9.294;2023-01-29T05:11:58;100468.28;;;-0.66;73.41
18819;BME280;9537;45.594;9.294;2023-01-29T05:13:03;100477.34;;;-0.74;73.91
18819;BME280;9537;45.594;9.294;2023-01-29T05:14:07;100474.06;;;-0.77;73.71
18819;BME280;9537;45.594;9.294;2023-01-29T05:15:16;100470.78;;;-0.81;74.35
18819;BME280;9537;45.594;9.294;2023-01-29T05:16:22;100469.19;;;-0.83;74.18
18819;BME280;9537;45.594;9.294;2023-01-29T05:17:27;100477.81;;;-0.83;74.13
18819;BME280;9537;45.594;9.294;2023-01-29T05:18:28;100471.88;;;-0.85;74.70
18819;BME280;9537;45.594;9.294;2023-01-29T05:19:32;100468.50;;;-0.87;74.09
18819;BME280;9537;45.594;9.294;2023-01-29T05:20:35;100470.72;;;-0.79;74.39
18819;BME280;9537;45.594;9.294;2023-01-29T05:21:41;100472.31;;;-0.77;74.89
18819;BME280;9537;45.594;9.294;2023-01-29T05:22:44;100471.16;;;-0.71;74.11
18819;BME280;9537;45.594;9.294;2023-01-29T05:24:06;100482.25;;;-0.69;73.98
18819;BME280;9537;45.594;9.294;2023-01-29T05:25:19;100478.50;;;-0.63;74.00
18819;BME280;9537;45.594;9.294;2023-01-29T05:26:22;100477.50;;;-0.61;73.76
18819;BME280;9537;45.594;9.294;2023-01-29T05:27:41;100489.59;;;-0.60;73.48
18819;BME280;9537;45.594;9.294;2023-01-29T05:29:01;100490.31;;;-0.58;73.69
18819;BME280;9537;45.594;9.294;2023-01-29T05:30:02;100490.16;;;-0.55;73.42
18819;BME280;9537;45.594;9.294;2023-01-29T05:31:04;100490.31;;;-0.58;73.33
18819;BME280;9537;45.594;9.294;2023-01-29T05:32:06;100488.81;;;-0.62;73.34
18819;BME280;9537;45.594;9.294;2023-01-29T05:33:12;100490.66;;;-0.64;73.93
18819;BME280;9537;45.594;9.294;2023-01-29T05:34:15;100483.97;;;-0.68;73.60
18819;BME280;9537;45.594;9.294;2023-01-29T05:35:17;100486.63;;;-0.70;73.92
18819;BME280;9537;45.594;9.294;2023-01-29T05:36:19;100487.63;;;-0.72;74.00
18819;BME280;9537;45.594;9.294;2023-01-29T05:37:20;100486.34;;;-0.81;73.92
18819;BME280;9537;45.594;9.294;2023-01-29T05:38:22;100485.19;;;-0.75;74.08
18819;BME280;9537;45.594;9.294;2023-01-29T05:39:23;100488.38;;;-0.70;74.08
18819;BME280;9537;45.594;9.294;2023-01-29T05:40:25;100492.97;;;-0.75;73.78
18819;BME280;9537;45.594;9.294;2023-01-29T05:41:26;100491.38;;;-0.78;74.08
18819;BME280;9537;45.594;9.294;2023-01-29T05:42:28;100487.34;;;-0.83;74.08
18819;BME280;9537;45.594;9.294;2023-01-29T05:43:29;100489.34;;;-0.88;74.46
18819;BME280;9537;45.594;9.294;2023-01-29T05:44:31;100487.75;;;-0.91;74.34
18819;BME280;9537;45.594;9.294;2023-01-29T05:45:32;100489.75;;;-0.96;74.17
18819;BME280;9537;45.594;9.294;2023-01-29T05:46:34;100487.06;;;-0.95;74.21
18819;BME280;9537;45.594;9.294;2023-01-29T05:47:35;100490.41;;;-0.93;74.95
18819;BME280;9537;45.594;9.294;2023-01-29T05:48:37;100485.84;;;-0.87;74.32
18819;BME280;9537;45.594;9.294;2023-01-29T05:49:38;100489.34;;;-0.88;74.53
18819;BME280;9537;45.594;9.294;2023-01-29T05:50:41;100486.59;;;-0.85;74.15
18819;BME280;9537;45.594;9.294;2023-01-29T05:51:43;100485.66;;;-0.84;74.43
18819;BME280;9537;45.594;9.294;2023-01-29T05:52:44;100486.66;;;-0.87;74.39
18819;BME280;9537;45.594;9.294;2023-01-29T05:53:46;100479.81;;;-0.88;74.16
18819;BME280;9537;45.594;9.294;2023-01-29T05:54:46;100480.88;;;-0.92;73.97
18819;BME280;9537;45.594;9.294;2023-01-29T05:55:48;100490.34;;;-0.91;74.26
18819;BME280;9537;45.594;9.294;2023-01-29T05:56:49;100487.66;;;-0.89;74.56
18819;BME280;9537;45.594;9.294;2023-01-29T05:57:51;100492.63;;;-0.85;74.52
18819;BME280;9537;45.594;9.294;2023-01-29T05:58:52;100491.03;;;-0.87;74.45